createdAt,value
2018-02-19T00:00:01.800Z,983.33
2018-02-19T00:01:01.727Z,983.32
2018-02-19T00:02:01.631Z,983.30
2018-02-19T00:03:01.546Z,983.32
2018-02-19T00:04:01.472Z,983.32
2018-02-19T00:05:01.379Z,983.31
2018-02-19T00:06:01.301Z,983.31
2018-02-19T00:07:01.213Z,983.28
2018-02-19T00:08:01.136Z,983.28
2018-02-19T00:09:01.041Z,983.28
2018-02-19T00:10:00.970Z,983.26
2018-02-19T00:11:00.874Z,983.24
2018-02-19T00:12:00.795Z,983.24
2018-02-19T00:13:00.702Z,983.24
2018-02-19T00:14:00.624Z,983.24
2018-02-19T00:15:00.534Z,983.23
2018-02-19T00:16:00.459Z,983.21
2018-02-19T00:17:00.364Z,983.21
2018-02-19T00:18:00.288Z,983.22
2018-02-19T00:19:00.198Z,983.22
2018-02-19T00:20:00.122Z,983.18
2018-02-19T00:21:00.028Z,983.21
2018-02-19T00:21:59.954Z,983.15
2018-02-19T00:22:59.857Z,983.19
2018-02-19T00:23:59.779Z,983.17
2018-02-19T00:24:59.696Z,983.21
2018-02-19T00:26:00.614Z,983.17
2018-02-19T00:26:59.521Z,983.17
2018-02-19T00:27:59.447Z,983.18
2018-02-19T00:28:59.352Z,983.16
2018-02-19T00:29:59.277Z,983.21
2018-02-19T00:30:59.180Z,983.22
2018-02-19T00:31:59.104Z,983.16
2018-02-19T00:32:59.015Z,983.22
2018-02-19T00:33:58.938Z,983.16
2018-02-19T00:34:58.846Z,983.15
2018-02-19T00:35:58.769Z,983.16
2018-02-19T00:36:58.677Z,983.17
2018-02-19T00:37:58.598Z,983.11
2018-02-19T00:38:58.506Z,983.15
2018-02-19T00:39:58.426Z,983.13
2018-02-19T00:40:58.338Z,983.11
2018-02-19T00:41:58.261Z,983.07
2018-02-19T00:42:58.166Z,983.08
2018-02-19T00:43:58.089Z,983.06
2018-02-19T00:44:57.998Z,983.05
2018-02-19T00:45:57.924Z,983.00
2018-02-19T00:46:57.830Z,983.00
2018-02-19T00:47:57.758Z,983.02
2018-02-19T00:48:57.660Z,982.97
2018-02-19T00:49:57.581Z,982.97
2018-02-19T00:50:57.496Z,982.93
2018-02-19T00:51:57.416Z,982.97
2018-02-19T00:52:57.321Z,982.92
2018-02-19T00:53:57.246Z,982.91
2018-02-19T00:54:57.155Z,982.89
2018-02-19T00:55:57.073Z,982.91
2018-02-19T00:56:56.984Z,982.94
2018-02-19T00:57:56.908Z,982.96
2018-02-19T00:58:56.816Z,982.92
2018-02-19T00:59:56.738Z,982.93
2018-02-19T01:00:56.643Z,982.97
2018-02-19T01:01:56.572Z,982.97
2018-02-19T01:02:56.485Z,982.94
2018-02-19T01:03:56.401Z,982.97
2018-02-19T01:04:56.308Z,982.98
2018-02-19T01:05:56.229Z,982.95
2018-02-19T01:06:56.139Z,982.98
2018-02-19T01:07:56.060Z,982.96
2018-02-19T01:08:55.966Z,982.94
2018-02-19T01:09:55.898Z,982.97
2018-02-19T01:10:55.800Z,982.95
2018-02-19T01:11:55.724Z,982.98
2018-02-19T01:12:55.669Z,982.97
2018-02-19T01:13:55.554Z,982.92
2018-02-19T01:14:55.459Z,982.92
2018-02-19T01:15:55.379Z,982.92
2018-02-19T01:16:55.293Z,982.89
2018-02-19T01:17:55.213Z,982.88
2018-02-19T01:18:55.127Z,982.86
2018-02-19T01:19:55.044Z,982.79
2018-02-19T01:20:54.957Z,982.79
2018-02-19T01:21:54.876Z,982.78
2018-02-19T01:22:54.785Z,982.75
2018-02-19T01:23:54.706Z,982.73
2018-02-19T01:24:54.621Z,982.69
2018-02-19T01:25:54.535Z,982.70
2018-02-19T01:26:54.443Z,982.70
2018-02-19T01:27:54.371Z,982.70
2018-02-19T01:28:54.277Z,982.70
2018-02-19T01:29:54.197Z,982.69
2018-02-19T01:30:54.105Z,982.68
2018-02-19T01:31:54.029Z,982.65
2018-02-19T01:32:53.937Z,982.62
2018-02-19T01:33:53.861Z,982.62
2018-02-19T01:34:53.767Z,982.59
2018-02-19T01:35:53.696Z,982.57
2018-02-19T01:36:53.597Z,982.55
2018-02-19T01:37:53.518Z,982.56
2018-02-19T01:38:53.428Z,982.53
2018-02-19T01:39:53.351Z,982.53
2018-02-19T01:40:53.259Z,982.49
2018-02-19T01:41:53.180Z,982.46
2018-02-19T01:42:53.088Z,982.44
2018-02-19T01:43:53.011Z,982.43
2018-02-19T01:44:52.919Z,982.40
2018-02-19T01:45:52.844Z,982.39
2018-02-19T01:46:52.753Z,982.39
2018-02-19T01:47:52.671Z,982.39
2018-02-19T01:48:52.579Z,982.38
2018-02-19T01:49:52.501Z,982.37
2018-02-19T01:50:52.411Z,982.36
2018-02-19T01:51:52.333Z,982.38
2018-02-19T01:52:52.246Z,982.35
2018-02-19T01:53:52.163Z,982.33
2018-02-19T01:54:52.069Z,982.36
2018-02-19T01:55:51.996Z,982.36
2018-02-19T01:56:51.909Z,982.35
2018-02-19T01:57:51.826Z,982.29
2018-02-19T01:58:51.731Z,982.26
2018-02-19T01:59:51.648Z,982.26
2018-02-19T02:00:51.560Z,982.27
2018-02-19T02:01:51.486Z,982.24
2018-02-19T02:02:51.397Z,982.23
2018-02-19T02:03:51.315Z,982.22
2018-02-19T02:04:51.220Z,982.17
2018-02-19T02:05:51.145Z,982.16
2018-02-19T02:06:51.051Z,982.16
2018-02-19T02:07:50.975Z,982.17
2018-02-19T02:08:50.881Z,982.15
2018-02-19T02:09:50.802Z,982.17
2018-02-19T02:10:50.711Z,982.11
2018-02-19T02:11:50.640Z,982.11
2018-02-19T02:12:50.546Z,982.11
2018-02-19T02:13:50.465Z,982.05
2018-02-19T02:14:50.370Z,982.08
2018-02-19T02:15:50.295Z,982.06
2018-02-19T02:16:50.204Z,982.07
2018-02-19T02:17:50.130Z,982.05
2018-02-19T02:18:50.033Z,982.07
2018-02-19T02:19:49.951Z,982.07
2018-02-19T02:20:49.865Z,982.07
2018-02-19T02:21:49.784Z,982.02
2018-02-19T02:22:49.690Z,982.03
2018-02-19T02:23:49.617Z,982.03
2018-02-19T02:24:49.519Z,982.03
2018-02-19T02:25:49.444Z,982.03
2018-02-19T02:26:49.351Z,982.03
2018-02-19T02:27:49.276Z,981.98
2018-02-19T02:28:49.180Z,981.95
2018-02-19T02:29:49.106Z,981.98
2018-02-19T02:30:49.013Z,981.92
2018-02-19T02:31:48.933Z,981.92
2018-02-19T02:32:48.840Z,981.96
2018-02-19T02:33:48.765Z,981.91
2018-02-19T02:34:48.668Z,981.93
2018-02-19T02:35:48.596Z,981.93
2018-02-19T02:36:48.498Z,981.90
2018-02-19T02:37:48.420Z,981.93
2018-02-19T02:38:48.330Z,981.92
2018-02-19T02:39:48.256Z,981.91
2018-02-19T02:40:48.157Z,981.94
2018-02-19T02:41:48.082Z,981.93
2018-02-19T02:42:47.987Z,981.88
2018-02-19T02:43:47.912Z,981.88
2018-02-19T02:44:47.815Z,981.85
2018-02-19T02:45:47.736Z,981.81
2018-02-19T02:46:47.646Z,981.83
2018-02-19T02:47:47.570Z,981.81
2018-02-19T02:48:47.476Z,981.80
2018-02-19T02:49:47.397Z,981.79
2018-02-19T02:50:47.304Z,981.79
2018-02-19T02:51:47.225Z,981.75
2018-02-19T02:52:47.130Z,981.74
2018-02-19T02:53:47.055Z,981.72
2018-02-19T02:54:46.960Z,981.73
2018-02-19T02:55:46.887Z,981.72
2018-02-19T02:56:46.793Z,981.69
2018-02-19T02:57:46.721Z,981.69
2018-02-19T02:58:46.620Z,981.67
2018-02-19T02:59:46.548Z,981.66
2018-02-19T03:00:46.449Z,981.60
2018-02-19T03:01:46.374Z,981.63
2018-02-19T03:02:46.275Z,981.62
2018-02-19T03:03:46.202Z,981.62
2018-02-19T03:04:46.107Z,981.63
2018-02-19T03:05:46.028Z,981.58
2018-02-19T03:06:45.934Z,981.57
2018-02-19T03:07:45.859Z,981.59
2018-02-19T03:08:45.763Z,981.56
2018-02-19T03:09:45.689Z,981.54
2018-02-19T03:10:45.594Z,981.51
2018-02-19T03:11:45.510Z,981.55
2018-02-19T03:12:45.424Z,981.53
2018-02-19T03:13:45.347Z,981.52
2018-02-19T03:14:45.252Z,981.47
2018-02-19T03:15:45.171Z,981.47
2018-02-19T03:16:45.081Z,981.47
2018-02-19T03:17:45.004Z,981.49
2018-02-19T03:18:44.912Z,981.47
2018-02-19T03:19:44.830Z,981.48
2018-02-19T03:20:44.739Z,981.48
2018-02-19T03:21:44.660Z,981.49
2018-02-19T03:22:44.567Z,981.51
2018-02-19T03:23:44.493Z,981.49
2018-02-19T03:24:44.396Z,981.48
2018-02-19T03:25:44.316Z,981.47
2018-02-19T03:26:44.225Z,981.47
2018-02-19T03:27:44.147Z,981.47
2018-02-19T03:28:44.055Z,981.51
2018-02-19T03:29:43.977Z,981.50
2018-02-19T03:30:43.882Z,981.51
2018-02-19T03:31:43.798Z,981.48
2018-02-19T03:32:43.709Z,981.49
2018-02-19T03:33:43.638Z,981.53
2018-02-19T03:34:43.539Z,981.52
2018-02-19T03:35:43.462Z,981.53
2018-02-19T03:36:43.369Z,981.51
2018-02-19T03:37:43.294Z,981.52
2018-02-19T03:38:43.197Z,981.52
2018-02-19T03:39:43.119Z,981.50
2018-02-19T03:40:43.025Z,981.46
2018-02-19T03:41:42.949Z,981.47
2018-02-19T03:42:42.857Z,981.47
2018-02-19T03:43:42.777Z,981.43
2018-02-19T03:44:42.681Z,981.44
2018-02-19T03:45:42.603Z,981.42
2018-02-19T03:46:42.511Z,981.45
2018-02-19T03:47:42.434Z,981.39
2018-02-19T03:48:42.340Z,981.38
2018-02-19T03:49:42.263Z,981.37
2018-02-19T03:50:42.169Z,981.36
2018-02-19T03:51:42.092Z,981.39
2018-02-19T03:52:41.999Z,981.34
2018-02-19T03:53:41.925Z,981.34
2018-02-19T03:54:41.827Z,981.29
2018-02-19T03:55:41.745Z,981.31
2018-02-19T03:56:41.655Z,981.28
2018-02-19T03:57:41.577Z,981.30
2018-02-19T03:58:41.483Z,981.27
2018-02-19T03:59:41.406Z,981.18
2018-02-19T04:00:41.311Z,981.22
2018-02-19T04:01:41.234Z,981.20
2018-02-19T04:02:41.137Z,981.20
2018-02-19T04:03:41.056Z,981.20
2018-02-19T04:04:40.968Z,981.18
2018-02-19T04:05:40.890Z,981.17
2018-02-19T04:06:40.800Z,981.17
2018-02-19T04:07:40.718Z,981.13
2018-02-19T04:08:40.625Z,981.16
2018-02-19T04:09:40.549Z,981.19
2018-02-19T04:10:40.455Z,981.16
2018-02-19T04:11:40.374Z,981.18
2018-02-19T04:12:40.279Z,981.15
2018-02-19T04:13:40.203Z,981.17
2018-02-19T04:14:40.111Z,981.21
2018-02-19T04:15:40.038Z,981.17
2018-02-19T04:16:39.940Z,981.19
2018-02-19T04:17:39.866Z,981.22
2018-02-19T04:18:39.767Z,981.23
2018-02-19T04:19:39.689Z,981.26
2018-02-19T04:20:39.596Z,981.24
2018-02-19T04:21:39.516Z,981.25
2018-02-19T04:22:39.428Z,981.26
2018-02-19T04:23:39.348Z,981.21
2018-02-19T04:24:39.252Z,981.22
2018-02-19T04:25:39.179Z,981.18
2018-02-19T04:26:39.079Z,981.22
2018-02-19T04:27:39.006Z,981.16
2018-02-19T04:28:38.910Z,981.13
2018-02-19T04:29:38.833Z,981.11
2018-02-19T04:30:38.739Z,981.09
2018-02-19T04:31:38.659Z,981.08
2018-02-19T04:32:38.567Z,981.11
2018-02-19T04:33:38.489Z,981.09
2018-02-19T04:34:38.396Z,981.01
2018-02-19T04:35:38.323Z,981.00
2018-02-19T04:36:38.225Z,981.01
2018-02-19T04:37:38.145Z,980.98
2018-02-19T04:38:38.052Z,980.99
2018-02-19T04:39:37.981Z,980.97
2018-02-19T04:40:37.879Z,980.94
2018-02-19T04:41:37.800Z,980.94
2018-02-19T04:42:37.706Z,980.96
2018-02-19T04:43:37.629Z,980.97
2018-02-19T04:44:37.537Z,981.01
2018-02-19T04:45:37.463Z,981.00
2018-02-19T04:46:37.373Z,980.99
2018-02-19T04:47:37.278Z,980.99
2018-02-19T04:48:37.257Z,981.01
2018-02-19T04:49:37.105Z,981.03
2018-02-19T04:50:37.066Z,981.02
2018-02-19T04:51:36.934Z,981.03
2018-02-19T04:52:36.873Z,981.03
2018-02-19T04:53:36.765Z,981.04
2018-02-19T04:54:36.684Z,981.04
2018-02-19T04:55:36.591Z,981.01
2018-02-19T04:56:36.592Z,981.07
2018-02-19T04:57:36.420Z,981.07
2018-02-19T04:58:36.403Z,981.04
2018-02-19T04:59:36.246Z,981.02
2018-02-19T05:00:36.211Z,981.05
2018-02-19T05:01:36.076Z,981.02
2018-02-19T05:02:36.017Z,981.02
2018-02-19T05:03:35.904Z,981.02
2018-02-19T05:04:35.928Z,981.00
2018-02-19T05:05:35.734Z,981.00
2018-02-19T05:06:35.737Z,980.98
2018-02-19T05:07:35.561Z,981.00
2018-02-19T05:08:35.544Z,980.99
2018-02-19T05:09:35.387Z,980.99
2018-02-19T05:10:35.353Z,981.01
2018-02-19T05:11:35.216Z,981.04
2018-02-19T05:12:35.162Z,981.02
2018-02-19T05:13:35.045Z,981.03
2018-02-19T05:14:35.075Z,981.03
2018-02-19T05:15:34.872Z,981.04
2018-02-19T05:16:34.883Z,981.06
2018-02-19T05:17:34.701Z,981.04
2018-02-19T05:18:34.689Z,981.01
2018-02-19T05:19:34.528Z,980.99
2018-02-19T05:20:34.497Z,980.98
2018-02-19T05:21:34.359Z,980.97
2018-02-19T05:22:34.307Z,980.97
2018-02-19T05:23:34.191Z,980.96
2018-02-19T05:24:34.213Z,980.95
2018-02-19T05:25:34.016Z,980.97
2018-02-19T05:26:34.027Z,980.99
2018-02-19T05:27:33.840Z,980.95
2018-02-19T05:28:33.764Z,981.02
2018-02-19T05:29:33.671Z,981.02
2018-02-19T05:30:33.592Z,981.00
2018-02-19T05:31:33.502Z,981.02
2018-02-19T05:32:33.446Z,981.00
2018-02-19T05:33:33.323Z,981.01
2018-02-19T05:34:33.263Z,980.99
2018-02-19T05:35:33.153Z,981.03
2018-02-19T05:36:33.075Z,981.05
2018-02-19T05:37:32.980Z,981.01
2018-02-19T05:38:32.902Z,981.02
2018-02-19T05:39:32.811Z,980.99
2018-02-19T05:40:32.784Z,981.04
2018-02-19T05:41:32.632Z,981.03
2018-02-19T05:42:32.593Z,981.02
2018-02-19T05:43:32.465Z,981.01
2018-02-19T05:44:32.403Z,981.03
2018-02-19T05:45:32.293Z,981.00
2018-02-19T05:46:32.313Z,981.00
2018-02-19T05:47:32.119Z,980.99
2018-02-19T05:48:32.120Z,981.05
2018-02-19T05:49:31.950Z,981.08
2018-02-19T05:50:31.869Z,981.07
2018-02-19T05:51:31.776Z,981.04
2018-02-19T05:52:31.697Z,981.05
2018-02-19T05:53:31.602Z,981.08
2018-02-19T05:54:31.524Z,981.09
2018-02-19T05:55:31.430Z,981.07
2018-02-19T05:56:31.457Z,981.06
2018-02-19T05:57:31.259Z,981.05
2018-02-19T05:58:31.265Z,981.06
2018-02-19T05:59:31.092Z,981.01
2018-02-19T06:00:31.077Z,981.04
2018-02-19T06:01:30.914Z,980.99
2018-02-19T06:02:30.882Z,980.96
2018-02-19T06:03:30.741Z,980.99
2018-02-19T06:04:30.664Z,980.95
2018-02-19T06:05:30.568Z,980.98
2018-02-19T06:06:30.492Z,980.98
2018-02-19T06:07:30.401Z,980.96
2018-02-19T06:08:30.317Z,980.95
2018-02-19T06:09:30.228Z,980.95
2018-02-19T06:10:30.146Z,980.95
2018-02-19T06:11:30.055Z,980.96
2018-02-19T06:12:30.014Z,980.95
2018-02-19T06:13:29.885Z,980.93
2018-02-19T06:14:29.795Z,980.91
2018-02-19T06:15:29.704Z,980.95
2018-02-19T06:16:29.632Z,980.93
2018-02-19T06:17:29.548Z,980.89
2018-02-19T06:18:29.454Z,980.92
2018-02-19T06:19:29.370Z,980.95
2018-02-19T06:20:29.283Z,980.98
2018-02-19T06:21:29.187Z,980.94
2018-02-19T06:22:29.110Z,980.99
2018-02-19T06:23:29.020Z,980.96
2018-02-19T06:24:28.937Z,980.98
2018-02-19T06:25:28.843Z,981.01
2018-02-19T06:26:28.760Z,981.01
2018-02-19T06:27:28.677Z,981.00
2018-02-19T06:28:28.596Z,981.00
2018-02-19T06:29:28.501Z,981.02
2018-02-19T06:30:28.421Z,981.01
2018-02-19T06:31:28.330Z,981.03
2018-02-19T06:32:28.251Z,981.03
2018-02-19T06:33:28.156Z,981.05
2018-02-19T06:34:28.079Z,981.03
2018-02-19T06:35:27.982Z,981.04
2018-02-19T06:36:27.904Z,981.02
2018-02-19T06:37:27.807Z,981.02
2018-02-19T06:38:27.738Z,981.01
2018-02-19T06:39:27.638Z,981.01
2018-02-19T06:40:27.570Z,980.99
2018-02-19T06:41:27.466Z,981.02
2018-02-19T06:42:27.387Z,981.00
2018-02-19T06:43:27.295Z,980.98
2018-02-19T06:44:27.217Z,980.98
2018-02-19T06:45:27.122Z,980.95
2018-02-19T06:46:27.040Z,980.98
2018-02-19T06:47:26.949Z,980.97
2018-02-19T06:48:26.871Z,980.99
2018-02-19T06:49:26.779Z,981.00
2018-02-19T06:50:26.701Z,981.01
2018-02-19T06:51:26.605Z,980.99
2018-02-19T06:52:26.533Z,981.01
2018-02-19T06:53:26.433Z,980.95
2018-02-19T06:54:26.401Z,980.95
2018-02-19T06:55:26.262Z,980.94
2018-02-19T06:56:26.180Z,980.96
2018-02-19T06:57:26.091Z,980.93
2018-02-19T06:58:26.006Z,980.93
2018-02-19T06:59:25.917Z,980.91
2018-02-19T07:00:25.837Z,980.93
2018-02-19T07:01:25.744Z,980.91
2018-02-19T07:02:25.665Z,980.90
2018-02-19T07:03:25.572Z,980.91
2018-02-19T07:04:25.492Z,980.86
2018-02-19T07:05:25.399Z,980.81
2018-02-19T07:06:25.318Z,980.85
2018-02-19T07:07:25.227Z,980.81
2018-02-19T07:08:25.146Z,980.77
2018-02-19T07:09:25.050Z,980.79
2018-02-19T07:10:24.978Z,980.78
2018-02-19T07:11:24.878Z,980.79
2018-02-19T07:12:24.807Z,980.84
2018-02-19T07:13:24.708Z,980.82
2018-02-19T07:14:24.633Z,980.87
2018-02-19T07:15:24.539Z,980.89
2018-02-19T07:16:24.462Z,980.87
2018-02-19T07:17:24.366Z,980.88
2018-02-19T07:18:24.286Z,980.88
2018-02-19T07:19:24.197Z,980.84
2018-02-19T07:20:24.118Z,980.82
2018-02-19T07:21:24.025Z,980.85
2018-02-19T07:22:23.950Z,980.81
2018-02-19T07:23:23.853Z,980.79
2018-02-19T07:24:23.778Z,980.80
2018-02-19T07:25:23.680Z,980.77
2018-02-19T07:26:23.600Z,980.72
2018-02-19T07:27:23.507Z,980.77
2018-02-19T07:28:23.446Z,980.71
2018-02-19T07:29:23.336Z,980.70
2018-02-19T07:30:23.261Z,980.71
2018-02-19T07:31:23.164Z,980.69
2018-02-19T07:32:23.089Z,980.67
2018-02-19T07:33:22.996Z,980.63
2018-02-19T07:34:22.913Z,980.62
2018-02-19T07:35:22.821Z,980.60
2018-02-19T07:36:22.749Z,980.56
2018-02-19T07:37:22.649Z,980.60
2018-02-19T07:38:22.569Z,980.63
2018-02-19T07:39:22.475Z,980.61
2018-02-19T07:40:22.404Z,980.63
2018-02-19T07:41:22.306Z,980.66
2018-02-19T07:42:22.226Z,980.64
2018-02-19T07:43:22.135Z,980.69
2018-02-19T07:44:22.079Z,980.68
2018-02-19T07:45:21.961Z,980.70
2018-02-19T07:46:21.885Z,980.71
2018-02-19T07:47:21.792Z,980.71
2018-02-19T07:48:21.715Z,980.69
2018-02-19T07:49:21.620Z,980.72
2018-02-19T07:50:21.545Z,980.69
2018-02-19T07:51:21.449Z,980.64
2018-02-19T07:52:21.373Z,980.66
2018-02-19T07:53:21.280Z,980.69
2018-02-19T07:54:21.206Z,980.70
2018-02-19T07:55:21.112Z,980.69
2018-02-19T07:56:21.027Z,980.66
2018-02-19T07:57:20.937Z,980.66
2018-02-19T07:58:20.860Z,980.65
2018-02-19T07:59:20.765Z,980.67
2018-02-19T08:00:20.696Z,980.65
2018-02-19T08:01:20.599Z,980.66
2018-02-19T08:02:20.523Z,980.68
2018-02-19T08:03:20.428Z,980.65
2018-02-19T08:04:20.352Z,980.62
2018-02-19T08:05:20.263Z,980.65
2018-02-19T08:06:20.179Z,980.59
2018-02-19T08:07:20.091Z,980.62
2018-02-19T08:08:20.013Z,980.61
2018-02-19T08:09:19.924Z,980.58
2018-02-19T08:10:19.843Z,980.60
2018-02-19T08:11:19.757Z,980.57
2018-02-19T08:12:19.677Z,980.60
2018-02-19T08:13:19.583Z,980.58
2018-02-19T08:14:19.504Z,980.54
2018-02-19T08:15:19.417Z,980.51
2018-02-19T08:16:19.339Z,980.50
2018-02-19T08:17:19.244Z,980.46
2018-02-19T08:18:19.182Z,980.52
2018-02-19T08:19:19.078Z,980.48
2018-02-19T08:20:19.002Z,980.47
2018-02-19T08:21:18.913Z,980.50
2018-02-19T08:22:18.839Z,980.49
2018-02-19T08:23:18.744Z,980.47
2018-02-19T08:24:18.666Z,980.48
2018-02-19T08:25:18.577Z,980.47
2018-02-19T08:26:18.505Z,980.41
2018-02-19T08:27:18.412Z,980.43
2018-02-19T08:28:18.332Z,980.46
2018-02-19T08:29:18.246Z,980.41
2018-02-19T08:30:18.169Z,980.41
2018-02-19T08:31:18.078Z,980.44
2018-02-19T08:32:18.010Z,980.43
2018-02-19T08:33:17.912Z,980.43
2018-02-19T08:34:17.838Z,980.42
2018-02-19T08:35:17.746Z,980.47
2018-02-19T08:36:17.673Z,980.46
2018-02-19T08:37:17.582Z,980.43
2018-02-19T08:38:17.504Z,980.41
2018-02-19T08:39:17.417Z,980.46
2018-02-19T08:40:17.345Z,980.47
2018-02-19T08:41:17.249Z,980.45
2018-02-19T08:42:17.175Z,980.48
2018-02-19T08:43:17.083Z,980.48
2018-02-19T08:44:17.013Z,980.45
2018-02-19T08:45:16.921Z,980.48
2018-02-19T08:46:16.848Z,980.47
2018-02-19T08:47:16.762Z,980.41
2018-02-19T08:48:16.679Z,980.45
2018-02-19T08:49:16.591Z,980.45
2018-02-19T08:50:16.515Z,980.40
2018-02-19T08:51:16.427Z,980.35
2018-02-19T08:52:16.354Z,980.37
2018-02-19T08:53:16.275Z,980.39
2018-02-19T08:54:16.188Z,980.35
2018-02-19T08:55:16.100Z,980.37
2018-02-19T08:56:16.028Z,980.31
2018-02-19T08:57:15.927Z,980.34
2018-02-19T08:58:15.858Z,980.28
2018-02-19T08:59:15.770Z,980.31
2018-02-19T09:00:15.694Z,980.31
2018-02-19T09:01:15.605Z,980.29
2018-02-19T09:02:15.532Z,980.33
2018-02-19T09:03:15.440Z,980.33
2018-02-19T09:04:15.367Z,980.35
2018-02-19T09:05:15.276Z,980.35
2018-02-19T09:06:15.206Z,980.29
2018-02-19T09:07:15.111Z,980.31
2018-02-19T09:08:15.037Z,980.31
2018-02-19T09:09:14.946Z,980.27
2018-02-19T09:10:14.872Z,980.33
2018-02-19T09:11:14.781Z,980.30
2018-02-19T09:12:14.712Z,980.29
2018-02-19T09:13:14.618Z,980.26
2018-02-19T09:14:14.543Z,980.26
2018-02-19T09:15:14.454Z,980.25
2018-02-19T09:16:14.380Z,980.25
2018-02-19T09:17:14.293Z,980.24
2018-02-19T09:18:14.214Z,980.23
2018-02-19T09:19:14.127Z,980.29
2018-02-19T09:20:14.054Z,980.23
2018-02-19T09:21:13.964Z,980.26
2018-02-19T09:22:13.887Z,980.23
2018-02-19T09:23:13.799Z,980.28
2018-02-19T09:24:13.730Z,980.24
2018-02-19T09:25:13.632Z,980.26
2018-02-19T09:26:13.559Z,980.26
2018-02-19T09:27:13.470Z,980.24
2018-02-19T09:28:13.395Z,980.23
2018-02-19T09:29:13.307Z,980.25
2018-02-19T09:30:13.231Z,980.26
2018-02-19T09:31:13.145Z,980.21
2018-02-19T09:32:13.072Z,980.23
2018-02-19T09:33:12.979Z,980.19
2018-02-19T09:34:12.903Z,980.21
2018-02-19T09:35:12.811Z,980.20
2018-02-19T09:36:12.774Z,980.20
2018-02-19T09:37:12.652Z,980.17
2018-02-19T09:38:12.596Z,980.18
2018-02-19T09:39:12.489Z,980.20
2018-02-19T09:40:12.413Z,980.14
2018-02-19T09:41:12.326Z,980.13
2018-02-19T09:42:12.909Z,980.15
2018-02-19T09:43:12.163Z,980.14
2018-02-19T09:44:12.090Z,980.09
2018-02-19T09:45:12.002Z,980.08
2018-02-19T09:46:11.929Z,980.10
2018-02-19T09:47:11.836Z,980.05
2018-02-19T09:48:11.761Z,980.06
2018-02-19T09:49:11.678Z,980.08
2018-02-19T09:50:11.596Z,980.10
2018-02-19T09:51:11.511Z,980.04
2018-02-19T09:52:11.440Z,980.05
2018-02-19T09:53:11.345Z,980.07
2018-02-19T09:54:11.270Z,980.10
2018-02-19T09:55:11.184Z,980.08
2018-02-19T09:56:11.112Z,980.04
2018-02-19T09:57:11.020Z,980.08
2018-02-19T09:58:10.947Z,980.07
2018-02-19T09:59:10.858Z,980.05
2018-02-19T10:00:10.785Z,980.04
2018-02-19T10:01:10.691Z,980.02
2018-02-19T10:02:10.616Z,980.01
2018-02-19T10:03:10.529Z,980.00
2018-02-19T10:04:10.457Z,980.01
2018-02-19T10:05:10.368Z,980.02
2018-02-19T10:06:10.292Z,980.03
2018-02-19T10:07:10.201Z,979.96
2018-02-19T10:08:10.129Z,979.98
2018-02-19T10:09:10.042Z,979.94
2018-02-19T10:10:09.961Z,979.96
2018-02-19T10:11:09.876Z,979.98
2018-02-19T10:12:09.804Z,979.89
2018-02-19T10:13:09.713Z,979.92
2018-02-19T10:14:09.641Z,979.91
2018-02-19T10:15:09.554Z,979.89
2018-02-19T10:16:09.538Z,979.90
2018-02-19T10:17:09.388Z,979.87
2018-02-19T10:18:09.313Z,979.89
2018-02-19T10:19:09.222Z,979.91
2018-02-19T10:20:09.150Z,979.87
2018-02-19T10:21:09.108Z,979.88
2018-02-19T10:22:08.996Z,979.90
2018-02-19T10:23:08.897Z,979.86
2018-02-19T10:24:08.823Z,979.87
2018-02-19T10:25:08.732Z,979.84
2018-02-19T10:26:08.659Z,979.85
2018-02-19T10:27:08.568Z,979.83
2018-02-19T10:28:08.498Z,979.82
2018-02-19T10:29:08.404Z,979.85
2018-02-19T10:30:08.330Z,979.84
2018-02-19T10:31:08.236Z,979.82
2018-02-19T10:32:08.169Z,979.83
2018-02-19T10:33:08.077Z,979.79
2018-02-19T10:34:08.001Z,979.78
2018-02-19T10:35:07.913Z,979.79
2018-02-19T10:36:07.839Z,979.81
2018-02-19T10:37:07.750Z,979.78
2018-02-19T10:38:07.674Z,979.75
2018-02-19T10:39:07.586Z,979.77
2018-02-19T10:40:07.509Z,979.73
2018-02-19T10:41:07.422Z,979.71
2018-02-19T10:42:07.345Z,979.75
2018-02-19T10:43:07.258Z,979.70
2018-02-19T10:44:07.184Z,979.74
2018-02-19T10:45:07.108Z,979.71
2018-02-19T10:46:07.042Z,979.69
2018-02-19T10:47:06.933Z,979.68
2018-02-19T10:48:06.947Z,979.68
2018-02-19T10:49:06.767Z,979.71
2018-02-19T10:50:06.754Z,979.69
2018-02-19T10:51:06.604Z,979.71
2018-02-19T10:52:06.563Z,979.68
2018-02-19T10:53:06.439Z,979.68
2018-02-19T10:54:06.476Z,979.65
2018-02-19T10:55:06.277Z,979.61
2018-02-19T10:56:06.283Z,979.58
2018-02-19T10:57:06.114Z,979.52
2018-02-19T10:58:06.094Z,979.55
2018-02-19T10:59:05.953Z,979.52
2018-02-19T11:00:05.901Z,979.53
2018-02-19T11:01:05.789Z,979.54
2018-02-19T11:02:05.811Z,979.50
2018-02-19T11:03:05.624Z,979.45
2018-02-19T11:04:06.647Z,979.51
2018-02-19T11:05:05.463Z,979.48
2018-02-19T11:06:05.428Z,979.45
2018-02-19T11:07:05.299Z,979.42
2018-02-19T11:08:05.237Z,979.46
2018-02-19T11:09:05.138Z,979.41
2018-02-19T11:10:05.069Z,979.40
2018-02-19T11:11:04.977Z,979.38
2018-02-19T11:12:04.956Z,979.41
2018-02-19T11:13:04.816Z,979.39
2018-02-19T11:14:04.765Z,979.36
2018-02-19T11:15:04.649Z,979.36
2018-02-19T11:16:04.677Z,979.36
2018-02-19T11:17:04.489Z,979.37
2018-02-19T11:18:04.481Z,979.37
2018-02-19T11:19:04.376Z,979.36
2018-02-19T11:20:04.290Z,979.34
2018-02-19T11:21:04.164Z,979.32
2018-02-19T11:22:04.200Z,979.30
2018-02-19T11:23:04.003Z,979.33
2018-02-19T11:24:04.010Z,979.30
2018-02-19T11:25:03.851Z,979.26
2018-02-19T11:26:03.765Z,979.26
2018-02-19T11:27:03.676Z,979.25
2018-02-19T11:28:03.627Z,979.26
2018-02-19T11:29:03.516Z,979.24
2018-02-19T11:30:03.539Z,979.25
2018-02-19T11:31:03.356Z,979.18
2018-02-19T11:32:03.341Z,979.19
2018-02-19T11:33:03.195Z,979.21
2018-02-19T11:34:03.154Z,979.20
2018-02-19T11:35:03.034Z,979.14
2018-02-19T11:36:02.962Z,979.16
2018-02-19T11:37:02.872Z,979.17
2018-02-19T11:38:02.808Z,979.14
2018-02-19T11:39:02.710Z,979.15
2018-02-19T11:40:02.681Z,979.11
2018-02-19T11:41:02.553Z,979.10
2018-02-19T11:42:02.487Z,979.09
2018-02-19T11:43:02.388Z,979.09
2018-02-19T11:44:02.314Z,979.04
2018-02-19T11:45:02.230Z,979.08
2018-02-19T11:46:02.156Z,979.04
2018-02-19T11:47:02.080Z,979.03
2018-02-19T11:48:02.019Z,979.02
2018-02-19T11:49:01.906Z,978.97
2018-02-19T11:50:01.928Z,978.97
2018-02-19T11:51:01.744Z,978.98
2018-02-19T11:52:01.734Z,978.94
2018-02-19T11:53:01.618Z,978.94
2018-02-19T11:54:01.540Z,978.91
2018-02-19T11:55:01.421Z,978.88
2018-02-19T11:56:01.454Z,978.89
2018-02-19T11:57:01.262Z,978.85
2018-02-19T11:58:01.267Z,978.88
2018-02-19T11:59:01.101Z,978.83
2018-02-19T12:00:01.071Z,978.85
2018-02-19T12:01:00.989Z,978.82
2018-02-19T12:02:00.880Z,978.80
2018-02-19T12:03:00.776Z,978.82
2018-02-19T12:04:00.790Z,978.78
2018-02-19T12:05:00.628Z,978.73
2018-02-19T12:06:00.655Z,978.72
2018-02-19T12:07:00.460Z,978.76
2018-02-19T12:08:00.408Z,978.72
2018-02-19T12:09:00.299Z,978.73
2018-02-19T12:10:00.315Z,978.67
2018-02-19T12:11:00.135Z,978.67
2018-02-19T12:12:00.125Z,978.67
2018-02-19T12:12:59.988Z,978.68
2018-02-19T12:13:59.931Z,978.66
2018-02-19T12:14:59.814Z,978.67
2018-02-19T12:15:59.847Z,978.64
2018-02-19T12:16:59.656Z,978.65
2018-02-19T12:17:59.653Z,978.65
2018-02-19T12:18:59.493Z,978.63
2018-02-19T12:19:59.461Z,978.61
2018-02-19T12:20:59.333Z,978.60
2018-02-19T12:21:59.269Z,978.56
2018-02-19T12:22:59.192Z,978.56
2018-02-19T12:23:59.177Z,978.56
2018-02-19T12:24:59.013Z,978.57
2018-02-19T12:25:58.990Z,978.53
2018-02-19T12:26:58.850Z,978.51